sensor_id;sensor_type;location;lat;lon;timestamp;temperature;humidity
53880;DHT22;39791;53.184;5.486;2023-04-15T00:00:40;8.40;99.90
53880;DHT22;39791;53.184;5.486;2023-04-15T00:03:06;8.50;99.90
53880;DHT22;39791;53.184;5.486;2023-04-15T00:05:32;8.40;99.90
53880;DHT22;39791;53.184;5.486;2023-04-15T00:07:59;8.40;1.00
53880;DHT22;39791;53.184;5.486;2023-04-15T00:10:26;8.40;1.00
53880;DHT22;39791;53.184;5.486;2023-04-15T00:12:52;10.00;1.00
53880;DHT22;39791;53.184;5.486;2023-04-15T00:15:18;8.30;1.00
53880;DHT22;39791;53.184;5.486;2023-04-15T00:17:44;8.30;6.20
53880;DHT22;39791;53.184;5.486;2023-04-15T00:20:10;8.30;42.50
53880;DHT22;39791;53.184;5.486;2023-04-15T00:22:36;8.30;97.10
53880;DHT22;39791;53.184;5.486;2023-04-15T00:25:02;8.20;99.90
53880;DHT22;39791;53.184;5.486;2023-04-15T00:27:27;8.20;99.90
53880;DHT22;39791;53.184;5.486;2023-04-15T00:29:54;8.20;99.90
53880;DHT22;39791;53.184;5.486;2023-04-15T00:32:19;10.00;99.90
53880;DHT22;39791;53.184;5.486;2023-04-15T00:34:45;9.50;1.00
53880;DHT22;39791;53.184;5.486;2023-04-15T00:37:11;8.10;1.00
53880;DHT22;39791;53.184;5.486;2023-04-15T00:39:37;8.10;1.00
53880;DHT22;39791;53.184;5.486;2023-04-15T00:42:06;8.10;12.80
53880;DHT22;39791;53.184;5.486;2023-04-15T00:44:32;8.10;80.80
53880;DHT22;39791;53.184;5.486;2023-04-15T00:47:00;8.20;99.90
53880;DHT22;39791;53.184;5.486;2023-04-15T00:49:28;8.00;99.90
53880;DHT22;39791;53.184;5.486;2023-04-15T00:51:53;8.00;99.90
53880;DHT22;39791;53.184;5.486;2023-04-15T00:54:20;7.90;99.90
53880;DHT22;39791;53.184;5.486;2023-04-15T00:56:46;7.90;99.90
53880;DHT22;39791;53.184;5.486;2023-04-15T00:59:13;7.90;1.00
53880;DHT22;39791;53.184;5.486;2023-04-15T01:01:39;7.90;1.00
53880;DHT22;39791;53.184;5.486;2023-04-15T01:04:06;7.80;1.00
53880;DHT22;39791;53.184;5.486;2023-04-15T01:06:31;7.80;1.00
53880;DHT22;39791;53.184;5.486;2023-04-15T01:08:58;7.80;49.40
53880;DHT22;39791;53.184;5.486;2023-04-15T01:11:24;7.70;99.90
53880;DHT22;39791;53.184;5.486;2023-04-15T01:13:51;7.70;99.90
53880;DHT22;39791;53.184;5.486;2023-04-15T01:16:18;7.60;99.90
53880;DHT22;39791;53.184;5.486;2023-04-15T01:18:44;7.60;99.90
53880;DHT22;39791;53.184;5.486;2023-04-15T01:21:10;7.60;1.00
53880;DHT22;39791;53.184;5.486;2023-04-15T01:23:36;7.60;1.00
53880;DHT22;39791;53.184;5.486;2023-04-15T01:26:03;7.60;60.60
53880;DHT22;39791;53.184;5.486;2023-04-15T01:28:30;9.00;99.90
53880;DHT22;39791;53.184;5.486;2023-04-15T01:31:10;7.60;99.90
53880;DHT22;39791;53.184;5.486;2023-04-15T01:33:36;7.60;99.90
53880;DHT22;39791;53.184;5.486;2023-04-15T01:36:03;7.50;1.00
53880;DHT22;39791;53.184;5.486;2023-04-15T01:38:30;7.50;1.00
53880;DHT22;39791;53.184;5.486;2023-04-15T01:40:56;7.40;99.90
53880;DHT22;39791;53.184;5.486;2023-04-15T01:43:22;7.40;99.90
53880;DHT22;39791;53.184;5.486;2023-04-15T01:45:48;7.40;99.90
53880;DHT22;39791;53.184;5.486;2023-04-15T01:48:13;7.30;99.90
53880;DHT22;39791;53.184;5.486;2023-04-15T01:50:39;7.30;1.00
53880;DHT22;39791;53.184;5.486;2023-04-15T01:53:04;8.70;1.00
53880;DHT22;39791;53.184;5.486;2023-04-15T01:55:30;7.30;1.00
53880;DHT22;39791;53.184;5.486;2023-04-15T01:57:56;7.40;46.20
53880;DHT22;39791;53.184;5.486;2023-04-15T02:00:21;7.20;99.40
53880;DHT22;39791;53.184;5.486;2023-04-15T02:02:47;7.20;99.90
53880;DHT22;39791;53.184;5.486;2023-04-15T02:05:14;7.10;99.90
53880;DHT22;39791;53.184;5.486;2023-04-15T02:07:43;7.20;99.90
53880;DHT22;39791;53.184;5.486;2023-04-15T02:10:09;7.20;99.90
53880;DHT22;39791;53.184;5.486;2023-04-15T02:12:35;7.20;99.90
53880;DHT22;39791;53.184;5.486;2023-04-15T02:15:01;7.10;99.90
53880;DHT22;39791;53.184;5.486;2023-04-15T02:17:27;7.10;99.90
53880;DHT22;39791;53.184;5.486;2023-04-15T02:19:55;7.10;99.90
53880;DHT22;39791;53.184;5.486;2023-04-15T02:22:21;7.10;99.90
53880;DHT22;39791;53.184;5.486;2023-04-15T02:24:46;7.10;99.90
53880;DHT22;39791;53.184;5.486;2023-04-15T02:27:16;7.10;99.90
53880;DHT22;39791;53.184;5.486;2023-04-15T02:29:43;7.10;99.90
53880;DHT22;39791;53.184;5.486;2023-04-15T02:32:10;7.10;99.90
53880;DHT22;39791;53.184;5.486;2023-04-15T02:34:36;7.10;99.90
53880;DHT22;39791;53.184;5.486;2023-04-15T02:37:06;7.10;99.90
53880;DHT22;39791;53.184;5.486;2023-04-15T02:39:32;7.10;99.90
53880;DHT22;39791;53.184;5.486;2023-04-15T02:41:57;7.10;99.90
53880;DHT22;39791;53.184;5.486;2023-04-15T02:44:24;7.10;99.90
53880;DHT22;39791;53.184;5.486;2023-04-15T02:46:51;7.10;99.90
53880;DHT22;39791;53.184;5.486;2023-04-15T02:49:19;6.90;99.90
53880;DHT22;39791;53.184;5.486;2023-04-15T02:51:45;7.00;99.90
53880;DHT22;39791;53.184;5.486;2023-04-15T02:54:17;7.10;99.90
53880;DHT22;39791;53.184;5.486;2023-04-15T02:56:43;7.00;99.90
53880;DHT22;39791;53.184;5.486;2023-04-15T02:59:08;7.00;99.90
53880;DHT22;39791;53.184;5.486;2023-04-15T03:01:34;6.80;99.90
53880;DHT22;39791;53.184;5.486;2023-04-15T03:03:59;7.60;99.90
53880;DHT22;39791;53.184;5.486;2023-04-15T03:06:25;7.00;99.90
53880;DHT22;39791;53.184;5.486;2023-04-15T03:08:51;7.00;99.90
53880;DHT22;39791;53.184;5.486;2023-04-15T03:11:18;6.90;99.90
53880;DHT22;39791;53.184;5.486;2023-04-15T03:13:43;6.80;99.90
53880;DHT22;39791;53.184;5.486;2023-04-15T03:16:09;6.90;99.90
53880;DHT22;39791;53.184;5.486;2023-04-15T03:18:35;6.90;99.90
53880;DHT22;39791;53.184;5.486;2023-04-15T03:21:01;6.90;99.90
53880;DHT22;39791;53.184;5.486;2023-04-15T03:23:27;6.90;99.90
53880;DHT22;39791;53.184;5.486;2023-04-15T03:25:53;6.90;99.90
53880;DHT22;39791;53.184;5.486;2023-04-15T03:28:21;6.80;99.90
53880;DHT22;39791;53.184;5.486;2023-04-15T03:30:47;6.80;99.90
53880;DHT22;39791;53.184;5.486;2023-04-15T03:33:12;6.80;99.90
53880;DHT22;39791;53.184;5.486;2023-04-15T03:35:38;6.80;99.90
53880;DHT22;39791;53.184;5.486;2023-04-15T03:38:03;6.80;99.90
53880;DHT22;39791;53.184;5.486;2023-04-15T03:40:29;6.80;99.90
53880;DHT22;39791;53.184;5.486;2023-04-15T03:42:55;6.70;99.90
53880;DHT22;39791;53.184;5.486;2023-04-15T03:45:20;6.80;99.90
53880;DHT22;39791;53.184;5.486;2023-04-15T03:47:46;6.70;99.90
53880;DHT22;39791;53.184;5.486;2023-04-15T03:50:11;6.70;99.90
53880;DHT22;39791;53.184;5.486;2023-04-15T03:52:37;6.70;99.90
53880;DHT22;39791;53.184;5.486;2023-04-15T03:55:03;6.70;99.90
53880;DHT22;39791;53.184;5.486;2023-04-15T03:57:29;6.60;99.90
53880;DHT22;39791;53.184;5.486;2023-04-15T03:59:55;6.50;99.90
53880;DHT22;39791;53.184;5.486;2023-04-15T04:02:21;6.50;99.90
53880;DHT22;39791;53.184;5.486;2023-04-15T04:04:47;6.40;99.90
53880;DHT22;39791;53.184;5.486;2023-04-15T04:07:16;6.60;99.90
53880;DHT22;39791;53.184;5.486;2023-04-15T04:09:42;6.50;99.90
53880;DHT22;39791;53.184;5.486;2023-04-15T04:12:08;6.50;99.90
53880;DHT22;39791;53.184;5.486;2023-04-15T04:14:33;6.50;99.90
53880;DHT22;39791;53.184;5.486;2023-04-15T04:16:59;6.60;99.90
53880;DHT22;39791;53.184;5.486;2023-04-15T04:19:25;6.60;99.90
53880;DHT22;39791;53.184;5.486;2023-04-15T04:21:51;6.60;99.90
53880;DHT22;39791;53.184;5.486;2023-04-15T04:24:17;6.60;99.90
53880;DHT22;39791;53.184;5.486;2023-04-15T04:26:42;6.60;99.90
53880;DHT22;39791;53.184;5.486;2023-04-15T04:29:08;6.60;99.90
53880;DHT22;39791;53.184;5.486;2023-04-15T04:31:33;6.60;99.90
53880;DHT22;39791;53.184;5.486;2023-04-15T04:33:59;6.60;99.90
53880;DHT22;39791;53.184;5.486;2023-04-15T04:36:25;6.60;99.90
53880;DHT22;39791;53.184;5.486;2023-04-15T04:38:51;6.60;99.90
53880;DHT22;39791;53.184;5.486;2023-04-15T04:41:17;6.60;99.90
53880;DHT22;39791;53.184;5.486;2023-04-15T04:43:42;6.60;99.90
53880;DHT22;39791;53.184;5.486;2023-04-15T04:46:08;6.50;99.90
53880;DHT22;39791;53.184;5.486;2023-04-15T04:48:34;6.60;99.90
53880;DHT22;39791;53.184;5.486;2023-04-15T04:51:00;6.60;99.90
53880;DHT22;39791;53.184;5.486;2023-04-15T04:53:26;6.60;99.90
53880;DHT22;39791;53.184;5.486;2023-04-15T04:55:52;6.60;99.90
53880;DHT22;39791;53.184;5.486;2023-04-15T04:58:18;6.60;99.90
53880;DHT22;39791;53.184;5.486;2023-04-15T05:00:43;6.60;99.90
53880;DHT22;39791;53.184;5.486;2023-04-15T05:03:09;7.40;99.90
53880;DHT22;39791;53.184;5.486;2023-04-15T05:05:35;6.60;99.90
53880;DHT22;39791;53.184;5.486;2023-04-15T05:08:01;6.60;99.90
53880;DHT22;39791;53.184;5.486;2023-04-15T05:10:27;6.60;99.90
53880;DHT22;39791;53.184;5.486;2023-04-15T05:12:52;6.60;99.90
53880;DHT22;39791;53.184;5.486;2023-04-15T05:15:18;6.60;99.90
53880;DHT22;39791;53.184;5.486;2023-04-15T05:17:43;6.70;99.90
53880;DHT22;39791;53.184;5.486;2023-04-15T05:20:10;6.70;99.90
53880;DHT22;39791;53.184;5.486;2023-04-15T05:22:36;6.70;99.90
53880;DHT22;39791;53.184;5.486;2023-04-15T05:25:01;6.70;99.90
53880;DHT22;39791;53.184;5.486;2023-04-15T05:27:27;6.40;99.90
53880;DHT22;39791;53.184;5.486;2023-04-15T05:29:53;6.30;99.90
53880;DHT22;39791;53.184;5.486;2023-04-15T05:32:18;6.00;99.90
53880;DHT22;39791;53.184;5.486;2023-04-15T05:34:44;6.00;99.90
53880;DHT22;39791;53.184;5.486;2023-04-15T05:37:09;6.10;99.90
53880;DHT22;39791;53.184;5.486;2023-04-15T05:39:35;6.00;99.90
53880;DHT22;39791;53.184;5.486;2023-04-15T05:42:01;6.00;99.90
53880;DHT22;39791;53.184;5.486;2023-04-15T05:44:26;6.00;99.90
53880;DHT22;39791;53.184;5.486;2023-04-15T05:46:52;6.20;99.90
53880;DHT22;39791;53.184;5.486;2023-04-15T05:49:18;6.20;99.90
53880;DHT22;39791;53.184;5.486;2023-04-15T05:51:43;8.00;99.90
53880;DHT22;39791;53.184;5.486;2023-04-15T05:54:09;6.30;99.90
53880;DHT22;39791;53.184;5.486;2023-04-15T05:56:35;6.30;99.90
53880;DHT22;39791;53.184;5.486;2023-04-15T05:59:01;6.30;99.90
53880;DHT22;39791;53.184;5.486;2023-04-15T06:01:26;6.40;99.90
53880;DHT22;39791;53.184;5.486;2023-04-15T06:03:52;6.40;99.90
53880;DHT22;39791;53.184;5.486;2023-04-15T06:06:17;6.50;99.90
53880;DHT22;39791;53.184;5.486;2023-04-15T06:08:43;6.60;99.90
53880;DHT22;39791;53.184;5.486;2023-04-15T06:11:08;6.60;99.90
53880;DHT22;39791;53.184;5.486;2023-04-15T06:13:34;6.80;99.90
53880;DHT22;39791;53.184;5.486;2023-04-15T06:16:00;6.90;99.90
53880;DHT22;39791;53.184;5.486;2023-04-15T06:18:25;7.00;99.90
53880;DHT22;39791;53.184;5.486;2023-04-15T06:20:51;7.20;99.90
53880;DHT22;39791;53.184;5.486;2023-04-15T06:23:17;7.20;99.90
53880;DHT22;39791;53.184;5.486;2023-04-15T06:25:42;7.30;99.90
53880;DHT22;39791;53.184;5.486;2023-04-15T06:28:08;7.40;99.90
53880;DHT22;39791;53.184;5.486;2023-04-15T06:30:34;7.60;99.90
53880;DHT22;39791;53.184;5.486;2023-04-15T06:33:00;7.60;99.90
53880;DHT22;39791;53.184;5.486;2023-04-15T06:35:27;8.70;99.90
53880;DHT22;39791;53.184;5.486;2023-04-15T06:37:53;7.80;99.90
53880;DHT22;39791;53.184;5.486;2023-04-15T06:40:18;8.50;99.90
53880;DHT22;39791;53.184;5.486;2023-04-15T06:42:44;8.20;99.90
53880;DHT22;39791;53.184;5.486;2023-04-15T06:45:10;8.30;99.90
53880;DHT22;39791;53.184;5.486;2023-04-15T06:47:36;8.60;99.90
53880;DHT22;39791;53.184;5.486;2023-04-15T06:50:01;8.80;99.90
53880;DHT22;39791;53.184;5.486;2023-04-15T06:52:28;9.00;99.90
53880;DHT22;39791;53.184;5.486;2023-04-15T06:54:54;9.10;99.90
53880;DHT22;39791;53.184;5.486;2023-04-15T06:57:19;9.30;99.90
53880;DHT22;39791;53.184;5.486;2023-04-15T06:59:45;9.40;99.90
53880;DHT22;39791;53.184;5.486;2023-04-15T07:02:12;9.50;99.90
53880;DHT22;39791;53.184;5.486;2023-04-15T07:04:38;9.60;99.90
53880;DHT22;39791;53.184;5.486;2023-04-15T07:07:04;9.70;99.90
53880;DHT22;39791;53.184;5.486;2023-04-15T07:09:30;9.70;99.90
53880;DHT22;39791;53.184;5.486;2023-04-15T07:11:56;9.80;99.90
53880;DHT22;39791;53.184;5.486;2023-04-15T07:14:22;11.00;99.90
53880;DHT22;39791;53.184;5.486;2023-04-15T07:16:47;11.60;99.90
53880;DHT22;39791;53.184;5.486;2023-04-15T07:19:13;9.90;99.90
53880;DHT22;39791;53.184;5.486;2023-04-15T07:21:39;10.00;99.90
53880;DHT22;39791;53.184;5.486;2023-04-15T07:24:04;10.00;99.90
53880;DHT22;39791;53.184;5.486;2023-04-15T07:26:31;10.00;99.90
53880;DHT22;39791;53.184;5.486;2023-04-15T07:28:56;10.00;99.90
53880;DHT22;39791;53.184;5.486;2023-04-15T07:31:22;10.00;99.90
53880;DHT22;39791;53.184;5.486;2023-04-15T07:33:47;10.00;99.90
53880;DHT22;39791;53.184;5.486;2023-04-15T07:36:13;10.00;99.90
53880;DHT22;39791;53.184;5.486;2023-04-15T07:38:40;10.00;99.90
53880;DHT22;39791;53.184;5.486;2023-04-15T07:41:06;10.20;99.90
53880;DHT22;39791;53.184;5.486;2023-04-15T07:43:32;10.30;99.90
53880;DHT22;39791;53.184;5.486;2023-04-15T07:45:58;10.40;99.90
53880;DHT22;39791;53.184;5.486;2023-04-15T07:48:24;11.20;99.90
53880;DHT22;39791;53.184;5.486;2023-04-15T07:50:50;10.30;99.90
53880;DHT22;39791;53.184;5.486;2023-04-15T07:53:15;12.10;99.90
53880;DHT22;39791;53.184;5.486;2023-04-15T07:55:41;10.60;99.90
53880;DHT22;39791;53.184;5.486;2023-04-15T07:58:06;10.70;99.90
53880;DHT22;39791;53.184;5.486;2023-04-15T08:00:32;10.70;99.90
53880;DHT22;39791;53.184;5.486;2023-04-15T08:02:57;10.70;99.90
53880;DHT22;39791;53.184;5.486;2023-04-15T08:05:24;10.70;99.90
53880;DHT22;39791;53.184;5.486;2023-04-15T08:07:50;10.70;99.90
53880;DHT22;39791;53.184;5.486;2023-04-15T08:10:16;11.50;99.90
53880;DHT22;39791;53.184;5.486;2023-04-15T08:12:41;10.80;99.90
53880;DHT22;39791;53.184;5.486;2023-04-15T08:15:07;10.60;99.90
53880;DHT22;39791;53.184;5.486;2023-04-15T08:17:33;10.70;99.90
53880;DHT22;39791;53.184;5.486;2023-04-15T08:20:02;10.60;99.90
53880;DHT22;39791;53.184;5.486;2023-04-15T08:22:30;10.60;99.90
53880;DHT22;39791;53.184;5.486;2023-04-15T08:24:55;12.10;99.90
53880;DHT22;39791;53.184;5.486;2023-04-15T08:27:22;12.40;99.90
53880;DHT22;39791;53.184;5.486;2023-04-15T08:29:47;10.50;99.90
53880;DHT22;39791;53.184;5.486;2023-04-15T08:32:13;10.50;99.90
53880;DHT22;39791;53.184;5.486;2023-04-15T08:34:39;12.30;99.90
53880;DHT22;39791;53.184;5.486;2023-04-15T08:37:04;12.30;99.90
53880;DHT22;39791;53.184;5.486;2023-04-15T08:39:31;11.90;99.90
53880;DHT22;39791;53.184;5.486;2023-04-15T08:42:03;12.60;99.90
53880;DHT22;39791;53.184;5.486;2023-04-15T08:44:34;12.20;99.90
53880;DHT22;39791;53.184;5.486;2023-04-15T08:47:07;10.80;99.90
53880;DHT22;39791;53.184;5.486;2023-04-15T08:49:35;11.00;99.90
53880;DHT22;39791;53.184;5.486;2023-04-15T08:52:02;11.90;99.90
53880;DHT22;39791;53.184;5.486;2023-04-15T08:54:29;11.10;99.90
53880;DHT22;39791;53.184;5.486;2023-04-15T08:56:57;11.10;99.90
53880;DHT22;39791;53.184;5.486;2023-04-15T08:59:23;12.70;99.90
53880;DHT22;39791;53.184;5.486;2023-04-15T09:01:49;11.30;99.90
53880;DHT22;39791;53.184;5.486;2023-04-15T09:04:18;11.20;99.90
53880;DHT22;39791;53.184;5.486;2023-04-15T09:06:43;11.40;99.90
53880;DHT22;39791;53.184;5.486;2023-04-15T09:09:09;13.00;99.90
53880;DHT22;39791;53.184;5.486;2023-04-15T09:11:34;11.30;99.90
53880;DHT22;39791;53.184;5.486;2023-04-15T09:14:01;11.40;99.90
53880;DHT22;39791;53.184;5.486;2023-04-15T09:16:26;11.20;99.90
53880;DHT22;39791;53.184;5.486;2023-04-15T09:18:53;11.10;99.90
53880;DHT22;39791;53.184;5.486;2023-04-15T09:21:18;12.60;99.90
53880;DHT22;39791;53.184;5.486;2023-04-15T09:23:58;11.10;99.90
53880;DHT22;39791;53.184;5.486;2023-04-15T09:26:34;11.20;99.90
53880;DHT22;39791;53.184;5.486;2023-04-15T09:29:10;11.30;99.90
53880;DHT22;39791;53.184;5.486;2023-04-15T09:31:40;11.30;99.90
53880;DHT22;39791;53.184;5.486;2023-04-15T09:34:06;11.90;99.90
53880;DHT22;39791;53.184;5.486;2023-04-15T09:36:51;11.30;32.20
53880;DHT22;39791;53.184;5.486;2023-04-15T09:39:17;11.20;1.00
53880;DHT22;39791;53.184;5.486;2023-04-15T09:41:43;11.10;1.00
53880;DHT22;39791;53.184;5.486;2023-04-15T09:44:25;11.00;1.00
53880;DHT22;39791;53.184;5.486;2023-04-15T09:46:51;11.10;1.00
53880;DHT22;39791;53.184;5.486;2023-04-15T09:49:17;11.10;1.00
53880;DHT22;39791;53.184;5.486;2023-04-15T09:51:43;11.30;60.00
53880;DHT22;39791;53.184;5.486;2023-04-15T09:54:08;11.30;40.40
53880;DHT22;39791;53.184;5.486;2023-04-15T09:56:35;11.20;1.00
53880;DHT22;39791;53.184;5.486;2023-04-15T09:59:04;11.30;1.00
53880;DHT22;39791;53.184;5.486;2023-04-15T10:01:30;11.50;1.00
53880;DHT22;39791;53.184;5.486;2023-04-15T10:03:56;13.10;99.90
53880;DHT22;39791;53.184;5.486;2023-04-15T10:06:24;11.50;99.90
53880;DHT22;39791;53.184;5.486;2023-04-15T10:08:51;13.10;99.90
53880;DHT22;39791;53.184;5.486;2023-04-15T10:11:18;12.60;1.00
53880;DHT22;39791;53.184;5.486;2023-04-15T10:13:45;11.70;99.90
53880;DHT22;39791;53.184;5.486;2023-04-15T10:16:13;11.40;1.00
53880;DHT22;39791;53.184;5.486;2023-04-15T10:18:43;11.50;99.90
53880;DHT22;39791;53.184;5.486;2023-04-15T10:21:10;12.70;27.00
53880;DHT22;39791;53.184;5.486;2023-04-15T10:23:37;11.70;1.00
53880;DHT22;39791;53.184;5.486;2023-04-15T10:26:03;11.80;1.00
53880;DHT22;39791;53.184;5.486;2023-04-15T10:28:29;11.70;31.60
53880;DHT22;39791;53.184;5.486;2023-04-15T10:30:56;13.20;1.00
53880;DHT22;39791;53.184;5.486;2023-04-15T10:33:24;11.80;99.90
53880;DHT22;39791;53.184;5.486;2023-04-15T10:35:51;12.90;99.90
53880;DHT22;39791;53.184;5.486;2023-04-15T10:38:34;12.00;77.50
53880;DHT22;39791;53.184;5.486;2023-04-15T10:41:16;12.10;1.00
53880;DHT22;39791;53.184;5.486;2023-04-15T10:44:02;12.30;99.90
53880;DHT22;39791;53.184;5.486;2023-04-15T10:46:39;12.10;99.90
53880;DHT22;39791;53.184;5.486;2023-04-15T10:49:16;13.40;99.90
53880;DHT22;39791;53.184;5.486;2023-04-15T10:51:56;11.90;1.00
53880;DHT22;39791;53.184;5.486;2023-04-15T10:57:05;11.90;99.90
53880;DHT22;39791;53.184;5.486;2023-04-15T10:59:32;12.90;99.90
53880;DHT22;39791;53.184;5.486;2023-04-15T11:02:03;12.10;99.90
53880;DHT22;39791;53.184;5.486;2023-04-15T11:04:58;12.20;99.90
53880;DHT22;39791;53.184;5.486;2023-04-15T11:12:56;11.80;1.00
53880;DHT22;39791;53.184;5.486;2023-04-15T11:18:18;11.50;1.00
53880;DHT22;39791;53.184;5.486;2023-04-15T11:20:50;11.70;99.90
53880;DHT22;39791;53.184;5.486;2023-04-15T11:23:41;11.80;99.90
53880;DHT22;39791;53.184;5.486;2023-04-15T11:26:13;11.80;99.90
53880;DHT22;39791;53.184;5.486;2023-04-15T11:28:41;13.40;99.90
53880;DHT22;39791;53.184;5.486;2023-04-15T11:31:12;13.10;86.30
53880;DHT22;39791;53.184;5.486;2023-04-15T11:36:10;11.30;7.50
53880;DHT22;39791;53.184;5.486;2023-04-15T11:38:36;11.30;41.90
53880;DHT22;39791;53.184;5.486;2023-04-15T11:41:02;11.20;77.50
53880;DHT22;39791;53.184;5.486;2023-04-15T11:43:31;11.20;99.90
53880;DHT22;39791;53.184;5.486;2023-04-15T11:45:58;11.10;99.90
53880;DHT22;39791;53.184;5.486;2023-04-15T11:48:26;11.20;99.90
53880;DHT22;39791;53.184;5.486;2023-04-15T11:50:53;11.10;1.00
53880;DHT22;39791;53.184;5.486;2023-04-15T11:53:19;10.70;1.00
53880;DHT22;39791;53.184;5.486;2023-04-15T11:55:50;11.10;1.00
53880;DHT22;39791;53.184;5.486;2023-04-15T11:58:23;11.20;1.00
53880;DHT22;39791;53.184;5.486;2023-04-15T12:00:54;11.10;71.70
53880;DHT22;39791;53.184;5.486;2023-04-15T12:03:23;11.00;95.60
53880;DHT22;39791;53.184;5.486;2023-04-15T12:13:54;10.90;29.50
53880;DHT22;39791;53.184;5.486;2023-04-15T12:16:21;10.90;6.90
53880;DHT22;39791;53.184;5.486;2023-04-15T12:18:51;12.10;27.80
53880;DHT22;39791;53.184;5.486;2023-04-15T12:21:21;10.70;99.90
53880;DHT22;39791;53.184;5.486;2023-04-15T12:23:51;11.10;99.90
53880;DHT22;39791;53.184;5.486;2023-04-15T12:26:20;10.70;1.00
53880;DHT22;39791;53.184;5.486;2023-04-15T12:29:02;10.90;99.90
53880;DHT22;39791;53.184;5.486;2023-04-15T12:31:28;10.80;6.70
53880;DHT22;39791;53.184;5.486;2023-04-15T12:33:57;12.50;1.00
53880;DHT22;39791;53.184;5.486;2023-04-15T12:36:24;10.80;1.00
53880;DHT22;39791;53.184;5.486;2023-04-15T12:38:50;10.90;1.00
53880;DHT22;39791;53.184;5.486;2023-04-15T12:41:15;10.80;1.00
53880;DHT22;39791;53.184;5.486;2023-04-15T12:43:43;10.70;64.40
53880;DHT22;39791;53.184;5.486;2023-04-15T12:46:10;11.00;99.90
53880;DHT22;39791;53.184;5.486;2023-04-15T12:48:35;10.50;99.90
53880;DHT22;39791;53.184;5.486;2023-04-15T12:51:01;10.40;1.00
53880;DHT22;39791;53.184;5.486;2023-04-15T12:53:26;10.20;1.00
53880;DHT22;39791;53.184;5.486;2023-04-15T12:55:52;10.20;99.90
53880;DHT22;39791;53.184;5.486;2023-04-15T12:58:18;11.80;99.90
53880;DHT22;39791;53.184;5.486;2023-04-15T13:00:44;11.70;1.00
53880;DHT22;39791;53.184;5.486;2023-04-15T13:03:09;11.80;1.00
53880;DHT22;39791;53.184;5.486;2023-04-15T13:05:35;10.40;99.90
53880;DHT22;39791;53.184;5.486;2023-04-15T13:08:03;11.60;1.00
53880;DHT22;39791;53.184;5.486;2023-04-15T13:10:29;10.30;99.90
53880;DHT22;39791;53.184;5.486;2023-04-15T13:12:55;10.30;1.00
53880;DHT22;39791;53.184;5.486;2023-04-15T13:15:22;10.10;1.00
53880;DHT22;39791;53.184;5.486;2023-04-15T13:17:48;10.10;13.70
53880;DHT22;39791;53.184;5.486;2023-04-15T13:20:14;10.70;32.70
53880;DHT22;39791;53.184;5.486;2023-04-15T13:22:39;11.40;99.90
53880;DHT22;39791;53.184;5.486;2023-04-15T13:25:06;10.30;26.20
53880;DHT22;39791;53.184;5.486;2023-04-15T13:27:32;10.10;27.40
53880;DHT22;39791;53.184;5.486;2023-04-15T13:29:58;9.90;99.90
53880;DHT22;39791;53.184;5.486;2023-04-15T13:32:24;10.10;82.40
53880;DHT22;39791;53.184;5.486;2023-04-15T13:34:50;10.10;99.90
53880;DHT22;39791;53.184;5.486;2023-04-15T13:37:16;11.70;99.90
53880;DHT22;39791;53.184;5.486;2023-04-15T13:39:41;11.70;99.90
53880;DHT22;39791;53.184;5.486;2023-04-15T13:42:07;10.80;99.90
53880;DHT22;39791;53.184;5.486;2023-04-15T13:44:33;10.00;99.90
53880;DHT22;39791;53.184;5.486;2023-04-15T13:46:59;11.20;1.00
53880;DHT22;39791;53.184;5.486;2023-04-15T13:49:24;10.90;1.00
53880;DHT22;39791;53.184;5.486;2023-04-15T13:51:50;11.80;14.40
53880;DHT22;39791;53.184;5.486;2023-04-15T13:54:16;10.00;99.90
53880;DHT22;39791;53.184;5.486;2023-04-15T13:56:42;11.50;99.90
53880;DHT22;39791;53.184;5.486;2023-04-15T13:59:07;10.00;99.90
53880;DHT22;39791;53.184;5.486;2023-04-15T14:01:34;9.90;99.90
53880;DHT22;39791;53.184;5.486;2023-04-15T14:04:00;9.80;99.90
53880;DHT22;39791;53.184;5.486;2023-04-15T14:06:26;10.00;99.90
53880;DHT22;39791;53.184;5.486;2023-04-15T14:08:52;9.90;99.90
53880;DHT22;39791;53.184;5.486;2023-04-15T14:11:17;11.70;99.90
53880;DHT22;39791;53.184;5.486;2023-04-15T14:13:43;9.70;99.90
53880;DHT22;39791;53.184;5.486;2023-04-15T14:16:09;10.70;99.90
53880;DHT22;39791;53.184;5.486;2023-04-15T14:18:34;10.00;99.90
53880;DHT22;39791;53.184;5.486;2023-04-15T14:21:01;10.00;99.90
53880;DHT22;39791;53.184;5.486;2023-04-15T14:23:28;11.10;99.90
53880;DHT22;39791;53.184;5.486;2023-04-15T14:25:53;10.00;99.90
53880;DHT22;39791;53.184;5.486;2023-04-15T14:28:19;10.00;99.90
53880;DHT22;39791;53.184;5.486;2023-04-15T14:30:45;9.90;99.90
53880;DHT22;39791;53.184;5.486;2023-04-15T14:33:11;9.90;99.90
53880;DHT22;39791;53.184;5.486;2023-04-15T14:35:37;10.00;99.90
53880;DHT22;39791;53.184;5.486;2023-04-15T14:38:03;10.00;99.90
53880;DHT22;39791;53.184;5.486;2023-04-15T14:40:30;11.80;98.30
53880;DHT22;39791;53.184;5.486;2023-04-15T14:42:59;9.80;99.90
53880;DHT22;39791;53.184;5.486;2023-04-15T14:45:24;9.80;43.60
53880;DHT22;39791;53.184;5.486;2023-04-15T14:47:50;11.00;46.50
53880;DHT22;39791;53.184;5.486;2023-04-15T14:50:17;10.20;21.70
53880;DHT22;39791;53.184;5.486;2023-04-15T14:52:43;9.90;1.00
53880;DHT22;39791;53.184;5.486;2023-04-15T14:55:09;9.90;1.00
53880;DHT22;39791;53.184;5.486;2023-04-15T14:57:40;10.00;98.50
53880;DHT22;39791;53.184;5.486;2023-04-15T15:00:09;11.70;99.90
53880;DHT22;39791;53.184;5.486;2023-04-15T15:02:36;9.90;99.90
53880;DHT22;39791;53.184;5.486;2023-04-15T15:05:02;10.40;99.90
53880;DHT22;39791;53.184;5.486;2023-04-15T15:07:28;9.90;99.90
53880;DHT22;39791;53.184;5.486;2023-04-15T15:09:54;9.80;99.90
53880;DHT22;39791;53.184;5.486;2023-04-15T15:12:20;9.80;99.90
53880;DHT22;39791;53.184;5.486;2023-04-15T15:14:47;9.70;74.20
53880;DHT22;39791;53.184;5.486;2023-04-15T15:17:14;10.30;99.90
53880;DHT22;39791;53.184;5.486;2023-04-15T15:19:39;9.70;1.00
53880;DHT22;39791;53.184;5.486;2023-04-15T15:22:05;9.80;1.00
53880;DHT22;39791;53.184;5.486;2023-04-15T15:24:31;9.80;1.00
53880;DHT22;39791;53.184;5.486;2023-04-15T15:26:56;11.80;34.80
53880;DHT22;39791;53.184;5.486;2023-04-15T15:29:22;9.90;1.00
53880;DHT22;39791;53.184;5.486;2023-04-15T15:31:48;9.90;1.00
53880;DHT22;39791;53.184;5.486;2023-04-15T15:34:15;11.60;1.00
53880;DHT22;39791;53.184;5.486;2023-04-15T15:36:41;9.90;99.90
53880;DHT22;39791;53.184;5.486;2023-04-15T15:39:06;9.90;99.90
53880;DHT22;39791;53.184;5.486;2023-04-15T15:41:32;10.80;99.90
53880;DHT22;39791;53.184;5.486;2023-04-15T15:43:58;9.90;99.90
53880;DHT22;39791;53.184;5.486;2023-04-15T15:46:24;10.00;99.90
53880;DHT22;39791;53.184;5.486;2023-04-15T15:48:50;11.50;99.90
53880;DHT22;39791;53.184;5.486;2023-04-15T15:51:16;11.80;99.90
53880;DHT22;39791;53.184;5.486;2023-04-15T15:53:41;10.10;99.90
53880;DHT22;39791;53.184;5.486;2023-04-15T15:56:09;11.80;99.90
53880;DHT22;39791;53.184;5.486;2023-04-15T15:58:35;10.00;99.90
53880;DHT22;39791;53.184;5.486;2023-04-15T16:01:01;11.80;99.90